createdAt,value
2022-10-20T00:00:06.731Z,18.50
2022-10-20T00:02:54.463Z,26.00
2022-10-20T00:05:22.320Z,23.00
2022-10-20T00:07:49.938Z,21.00
2022-10-20T00:10:17.667Z,20.00
2022-10-20T00:12:45.373Z,19.00
2022-10-20T00:15:13.519Z,22.00
2022-10-20T00:17:41.237Z,21.00
2022-10-20T00:20:09.328Z,19.00
2022-10-20T00:22:37.297Z,19.00
2022-10-20T00:25:05.748Z,24.00
2022-10-20T00:27:33.649Z,19.50
2022-10-20T00:30:01.690Z,20.00
2022-10-20T00:32:30.260Z,20.50
2022-10-20T00:34:57.930Z,22.00
2022-10-20T00:37:25.813Z,23.00
2022-10-20T00:39:53.577Z,19.00
2022-10-20T00:42:21.172Z,20.00
2022-10-20T00:44:55.772Z,24.00
2022-10-20T00:50:18.921Z,17.00
2022-10-20T00:52:46.769Z,18.50
2022-10-20T00:55:19.653Z,21.00
2022-10-20T00:57:49.778Z,19.00
2022-10-20T01:00:17.994Z,21.00
2022-10-20T01:02:46.203Z,19.50
2022-10-20T01:05:14.233Z,17.00
2022-10-20T01:07:41.996Z,19.00
2022-10-20T01:10:10.150Z,20.50
2022-10-20T01:12:51.758Z,17.00
2022-10-20T01:15:31.510Z,23.00
2022-10-20T01:17:59.577Z,23.50
2022-10-20T01:20:44.621Z,17.50
2022-10-20T01:23:30.910Z,19.50
2022-10-20T01:26:13.305Z,19.50
2022-10-20T01:28:43.387Z,22.00
2022-10-20T01:31:26.567Z,21.00
2022-10-20T01:33:54.374Z,17.00
2022-10-20T01:36:36.130Z,18.00
2022-10-20T01:39:30.270Z,19.00
2022-10-20T01:42:01.840Z,18.00
2022-10-20T01:44:31.193Z,16.00
2022-10-20T01:46:59.257Z,23.00
2022-10-20T01:49:27.541Z,18.50
2022-10-20T01:51:55.610Z,17.00
2022-10-20T01:54:28.193Z,18.00
2022-10-20T01:57:04.247Z,18.00
2022-10-20T01:59:38.154Z,23.00
2022-10-20T02:02:11.771Z,20.00
2022-10-20T02:04:57.954Z,17.00
2022-10-20T02:07:28.383Z,21.00
2022-10-20T02:10:00.797Z,19.00
2022-10-20T02:12:31.614Z,24.00
2022-10-20T02:15:00.035Z,19.50
2022-10-20T02:17:29.146Z,17.00
2022-10-20T02:19:57.957Z,19.00
2022-10-20T02:22:25.940Z,18.00
2022-10-20T02:24:53.585Z,18.00
2022-10-20T02:27:21.268Z,20.00
2022-10-20T02:29:54.541Z,21.00
2022-10-20T02:32:23.124Z,19.50
2022-10-20T02:34:50.890Z,21.50
2022-10-20T02:37:18.716Z,17.50
2022-10-20T02:39:46.328Z,19.00
2022-10-20T02:42:14.084Z,21.00
2022-10-20T02:44:41.770Z,17.50
2022-10-20T02:47:09.819Z,25.00
2022-10-20T02:49:37.479Z,17.00
2022-10-20T02:52:05.554Z,22.00
2022-10-20T02:54:34.013Z,23.00
2022-10-20T02:57:01.675Z,18.00
2022-10-20T02:59:29.359Z,22.00
2022-10-20T03:01:57.053Z,18.00
2022-10-20T03:06:53.602Z,17.00
2022-10-20T03:09:21.436Z,17.00
2022-10-20T03:11:49.253Z,20.00
2022-10-20T03:14:16.920Z,19.50
2022-10-20T03:16:44.584Z,18.00
2022-10-20T03:19:12.292Z,19.00
2022-10-20T03:21:40.009Z,22.00
2022-10-20T03:24:08.026Z,17.00
2022-10-20T03:26:35.715Z,19.00
2022-10-20T03:29:03.585Z,17.00
2022-10-20T03:31:31.537Z,22.50
2022-10-20T03:33:59.492Z,22.50
2022-10-20T03:36:27.558Z,23.00
2022-10-20T03:38:55.325Z,17.00
2022-10-20T03:41:22.993Z,21.00
2022-10-20T03:43:50.874Z,19.50
2022-10-20T03:46:18.625Z,21.50
2022-10-20T03:48:46.388Z,21.00
2022-10-20T03:51:14.463Z,25.00
2022-10-20T03:53:42.327Z,16.00
2022-10-20T03:56:11.105Z,17.00
2022-10-20T03:58:38.808Z,17.50
2022-10-20T04:01:09.377Z,26.00
2022-10-20T04:03:37.174Z,20.00
2022-10-20T04:06:05.013Z,24.00
2022-10-20T04:08:32.842Z,17.50
2022-10-20T04:11:00.769Z,20.00
2022-10-20T04:13:28.506Z,21.50
2022-10-20T04:15:56.219Z,19.00
2022-10-20T04:18:23.870Z,21.00
2022-10-20T04:20:51.528Z,20.50
2022-10-20T04:23:19.663Z,24.00
2022-10-20T04:25:48.586Z,22.00
2022-10-20T04:28:17.528Z,20.50
2022-10-20T04:30:45.757Z,24.00
2022-10-20T04:33:13.654Z,23.00
2022-10-20T04:35:41.940Z,17.00
2022-10-20T04:38:09.753Z,20.50
2022-10-20T04:40:37.477Z,19.00
2022-10-20T04:43:05.146Z,25.50
2022-10-20T04:45:32.824Z,22.00
2022-10-20T04:48:00.475Z,22.00
2022-10-20T04:50:28.128Z,21.00
2022-10-20T04:53:08.006Z,20.00
2022-10-20T04:55:36.291Z,19.00
2022-10-20T04:58:04.170Z,21.00
2022-10-20T05:00:32.707Z,20.00
2022-10-20T05:03:00.579Z,16.00
2022-10-20T05:05:28.594Z,18.00
2022-10-20T05:07:56.486Z,19.00
2022-10-20T05:10:24.527Z,16.00
2022-10-20T05:12:52.190Z,23.00
2022-10-20T05:15:19.972Z,21.50
2022-10-20T05:17:47.803Z,21.00
2022-10-20T05:20:15.688Z,17.00
2022-10-20T05:22:43.355Z,20.00
2022-10-20T05:25:35.587Z,21.00
2022-10-20T05:28:00.206Z,18.00
2022-10-20T05:30:27.970Z,25.50
2022-10-20T05:32:56.014Z,24.50
2022-10-20T05:35:23.781Z,22.00
2022-10-20T05:37:51.549Z,17.00
2022-10-20T05:40:19.205Z,20.00
2022-10-20T05:42:47.082Z,20.00
2022-10-20T05:45:15.145Z,22.00
2022-10-20T05:47:43.218Z,21.00
2022-10-20T05:50:10.984Z,18.00
2022-10-20T05:52:38.832Z,20.00
2022-10-20T05:55:08.130Z,22.00
2022-10-20T05:57:35.920Z,15.00
2022-10-20T06:00:04.101Z,21.00
2022-10-20T06:02:39.614Z,19.00
2022-10-20T06:05:07.526Z,21.00
2022-10-20T06:07:35.656Z,16.50
2022-10-20T06:10:04.561Z,26.00
2022-10-20T06:12:32.460Z,25.00
2022-10-20T06:15:00.197Z,19.00
2022-10-20T06:17:28.065Z,21.00
2022-10-20T06:19:55.834Z,22.00
2022-10-20T06:22:23.590Z,18.00
2022-10-20T06:24:51.263Z,18.50
2022-10-20T06:27:18.912Z,18.00
2022-10-20T06:29:46.578Z,16.00
2022-10-20T06:32:15.435Z,16.00
2022-10-20T06:34:43.338Z,15.00
2022-10-20T06:37:11.065Z,17.00
2022-10-20T06:39:38.976Z,14.00
2022-10-20T06:42:11.335Z,19.00
2022-10-20T06:44:45.890Z,14.00
2022-10-20T06:47:13.494Z,20.00
2022-10-20T06:49:41.176Z,16.00
2022-10-20T06:54:36.526Z,17.00
2022-10-20T06:57:04.340Z,17.00
2022-10-20T06:59:32.151Z,15.50
2022-10-20T07:02:02.065Z,14.00
2022-10-20T07:04:29.988Z,17.00
2022-10-20T07:06:57.893Z,13.00
2022-10-20T07:09:25.874Z,13.00
2022-10-20T07:11:53.829Z,14.00
2022-10-20T07:14:21.817Z,10.00
2022-10-20T07:16:49.660Z,15.00
2022-10-20T07:19:17.952Z,12.00
2022-10-20T07:21:46.234Z,13.50
2022-10-20T07:24:14.548Z,13.00
2022-10-20T07:26:42.475Z,10.00
2022-10-20T07:29:10.608Z,11.50
2022-10-20T07:31:41.681Z,13.00
2022-10-20T07:34:24.354Z,13.00
2022-10-20T07:36:55.037Z,11.00
2022-10-20T07:39:23.008Z,13.00
2022-10-20T07:41:51.245Z,14.00
2022-10-20T07:44:19.249Z,13.00
2022-10-20T07:46:46.974Z,11.00
2022-10-20T07:52:02.502Z,13.00
2022-10-20T07:54:31.100Z,12.00
2022-10-20T07:56:58.963Z,12.00
2022-10-20T07:59:26.927Z,13.00
2022-10-20T08:01:56.318Z,16.00
2022-10-20T08:04:27.171Z,11.00
2022-10-20T08:06:55.541Z,11.00
2022-10-20T08:09:23.628Z,13.00
2022-10-20T08:11:55.555Z,14.00
2022-10-20T08:14:32.670Z,10.00
2022-10-20T08:17:01.762Z,13.00
2022-10-20T08:19:36.197Z,11.00
2022-10-20T08:22:04.147Z,13.00
2022-10-20T08:24:32.308Z,11.50
2022-10-20T08:27:01.780Z,11.00
2022-10-20T08:29:30.389Z,10.00
2022-10-20T08:31:58.280Z,11.00
2022-10-20T08:34:26.751Z,11.00
2022-10-20T08:36:55.858Z,11.50
2022-10-20T08:39:24.449Z,12.00
2022-10-20T08:42:07.981Z,11.00
2022-10-20T08:44:38.501Z,15.00
2022-10-20T08:47:15.082Z,11.00
2022-10-20T08:49:45.117Z,11.00
2022-10-20T08:52:15.527Z,11.00
2022-10-20T08:54:44.351Z,11.00
2022-10-20T08:57:22.623Z,11.00
2022-10-20T08:59:55.761Z,14.00
2022-10-20T09:02:25.020Z,13.00
2022-10-20T09:04:56.471Z,10.00
2022-10-20T09:07:24.741Z,10.00
2022-10-20T09:09:55.945Z,12.50
2022-10-20T09:12:28.740Z,13.00
2022-10-20T09:14:59.503Z,15.00
2022-10-20T09:17:27.786Z,10.00
2022-10-20T09:19:57.438Z,16.00
2022-10-20T09:22:32.027Z,12.00
2022-10-20T09:25:05.312Z,12.00
2022-10-20T09:27:36.400Z,11.00
2022-10-20T09:30:35.762Z,10.50
2022-10-20T09:33:22.558Z,13.50
2022-10-20T09:35:50.941Z,11.50
2022-10-20T09:38:32.544Z,16.00
2022-10-20T09:41:14.300Z,10.50
2022-10-20T09:44:03.141Z,10.00
2022-10-20T09:46:44.420Z,11.00
2022-10-20T09:49:34.288Z,11.00
2022-10-20T09:52:04.839Z,12.00
2022-10-20T09:54:33.774Z,10.00
2022-10-20T09:57:15.090Z,12.00
2022-10-20T09:59:46.694Z,10.00
2022-10-20T10:02:14.573Z,10.00
2022-10-20T10:04:44.183Z,13.00
2022-10-20T10:07:27.309Z,10.00
2022-10-20T10:10:05.597Z,11.00
2022-10-20T10:12:36.501Z,10.00
2022-10-20T10:15:07.530Z,11.00
2022-10-20T10:17:37.209Z,11.00
2022-10-20T10:20:26.322Z,10.00
2022-10-20T10:23:07.668Z,13.00
2022-10-20T10:25:35.727Z,13.00
2022-10-20T10:28:08.802Z,13.00
2022-10-20T10:30:38.501Z,12.00
2022-10-20T10:33:24.324Z,15.00
2022-10-20T10:35:52.491Z,13.00
2022-10-20T10:38:20.764Z,13.00
2022-10-20T10:40:54.881Z,15.00
2022-10-20T10:43:29.994Z,15.00
2022-10-20T10:46:00.488Z,13.00
2022-10-20T10:48:28.366Z,14.00
2022-10-20T10:51:00.577Z,12.00
2022-10-20T10:53:47.325Z,11.00
2022-10-20T10:56:39.622Z,11.00
2022-10-20T10:59:13.342Z,13.00
2022-10-20T11:01:41.218Z,14.00
2022-10-20T11:04:09.277Z,12.50
2022-10-20T11:06:42.587Z,10.50
2022-10-20T11:09:13.406Z,12.00
2022-10-20T11:11:48.796Z,10.00
2022-10-20T11:14:17.029Z,10.00
2022-10-20T11:16:50.824Z,11.00
2022-10-20T11:19:18.504Z,13.00
2022-10-20T11:21:53.399Z,10.00
2022-10-20T11:24:41.354Z,13.00
2022-10-20T11:27:39.079Z,13.00
2022-10-20T11:30:19.594Z,13.00
2022-10-20T11:32:53.646Z,12.00
2022-10-20T11:35:34.076Z,10.00
2022-10-20T11:38:10.656Z,13.00
2022-10-20T11:40:40.191Z,16.33
2022-10-20T11:43:12.629Z,11.00
2022-10-20T11:45:54.511Z,13.00
2022-10-20T11:49:03.289Z,11.00
2022-10-20T11:51:31.931Z,13.00
2022-10-20T11:54:00.602Z,14.00
2022-10-20T11:56:35.739Z,10.00
2022-10-20T11:59:06.926Z,14.00
2022-10-20T12:02:04.019Z,15.00
2022-10-20T12:04:35.289Z,13.00
2022-10-20T12:07:21.281Z,17.00
2022-10-20T12:09:55.501Z,14.00
2022-10-20T12:12:32.575Z,18.00
2022-10-20T12:15:01.983Z,19.00
2022-10-20T12:17:31.074Z,16.00
2022-10-20T12:20:17.590Z,18.00
2022-10-20T12:22:45.467Z,14.00
2022-10-20T12:25:34.393Z,18.00
2022-10-20T12:28:21.036Z,14.00
2022-10-20T12:30:56.089Z,14.50
2022-10-20T12:33:43.307Z,14.00
2022-10-20T12:36:17.411Z,14.50
2022-10-20T12:38:49.713Z,15.00
2022-10-20T12:41:35.220Z,14.00
2022-10-20T12:44:05.672Z,15.00
2022-10-20T12:46:37.753Z,15.00
2022-10-20T12:49:11.009Z,16.00
2022-10-20T12:51:41.163Z,14.00
2022-10-20T12:54:21.214Z,14.00
2022-10-20T12:56:49.478Z,13.00
2022-10-20T12:59:20.317Z,15.00
2022-10-20T13:02:07.326Z,24.50
2022-10-20T13:04:54.968Z,22.00
2022-10-20T13:07:41.694Z,17.00
2022-10-20T13:10:30.904Z,11.50
2022-10-20T13:13:02.089Z,15.50
2022-10-20T13:15:36.425Z,11.00
2022-10-20T13:18:08.111Z,11.00
2022-10-20T13:20:36.130Z,12.50
2022-10-20T13:23:04.543Z,15.00
2022-10-20T13:25:46.303Z,12.50
2022-10-20T13:28:14.475Z,13.00
2022-10-20T13:30:54.625Z,13.50
2022-10-20T13:33:51.562Z,13.00
2022-10-20T13:36:24.313Z,12.50
2022-10-20T13:39:02.358Z,11.00
2022-10-20T13:41:42.453Z,11.00
2022-10-20T13:44:14.921Z,11.00
2022-10-20T13:46:46.954Z,12.00
2022-10-20T13:49:33.913Z,12.00
2022-10-20T13:52:06.552Z,14.00
2022-10-20T13:54:37.183Z,16.00
2022-10-20T13:57:05.752Z,12.00
2022-10-20T13:59:33.632Z,14.00
2022-10-20T14:02:14.187Z,11.00
2022-10-20T14:04:42.164Z,13.00
2022-10-20T14:07:13.505Z,12.00
2022-10-20T14:09:45.472Z,13.00
2022-10-20T14:12:19.578Z,12.50
2022-10-20T14:14:47.456Z,12.00
2022-10-20T14:17:19.940Z,15.00
2022-10-20T14:19:48.124Z,14.50
2022-10-20T14:22:15.865Z,12.00
